Time;durP1;ratioP1;P1;durP2;ratioP2;P2;SDS_P1;SDS_P2;PMS_P1;PMS_P2;Temp;Humidity;BMP_temperature;BMP_pressure;BME280_temperature;BME280_humidity;BME280_pressure;Samples;Min_cycle;Max_cycle;Signal;HPM_P1;HPM_P2
2022/04/20 00:00:36;;;;;;;5.80;3.33;;;;;;;11.96;60.35;100759.16;4977609;28;20023;-95
2022/04/20 00:03:03;;;;;;;6.45;3.83;;;;;;;11.95;60.21;100761.91;4977224;28;20022;-95
2022/04/20 00:05:33;;;;;;;7.63;4.07;;;;;;;12.02;60.18;100779.81;4977314;28;20042;-95
2022/04/20 00:07:59;;;;;;;5.50;3.72;;;;;;;12.03;60.62;100784.13;4977412;28;20023;-96
2022/04/20 00:10:25;;;;;;;14.20;4.30;;;;;;;11.85;60.57;100752.00;4977148;28;20026;-96
2022/04/20 00:12:50;;;;;;;8.85;4.88;;;;;;;11.96;60.17;100767.06;4977379;28;20384;-96
2022/04/20 00:15:16;;;;;;;12.18;4.50;;;;;;;11.75;60.80;100763.22;4977090;28;20070;-95
2022/04/20 00:17:41;;;;;;;7.13;4.00;;;;;;;11.62;60.93;100753.53;4977075;28;20499;-94
2022/04/20 00:20:07;;;;;;;11.32;4.50;;;;;;;11.78;60.87;100771.75;4976870;28;20026;-96
2022/04/20 00:22:33;;;;;;;6.03;4.07;;;;;;;11.85;60.82;100775.66;4977009;28;20105;-94
2022/04/20 00:24:58;;;;;;;7.50;4.05;;;;;;;11.77;60.32;100751.66;4976228;28;20057;-95
2022/04/20 00:27:24;;;;;;;6.57;4.60;;;;;;;11.82;60.73;100760.06;4976811;28;20385;-96
2022/04/20 00:29:49;;;;;;;7.03;3.90;;;;;;;11.73;60.52;100749.31;4976687;28;20041;-96
2022/04/20 00:32:14;;;;;;;11.05;4.30;;;;;;;11.66;60.55;100751.53;4976891;28;20027;-95
2022/04/20 00:34:40;;;;;;;8.85;4.40;;;;;;;11.58;61.49;100756.47;4977009;28;20027;-95
2022/04/20 00:37:05;;;;;;;6.32;4.15;;;;;;;11.61;60.96;100740.47;4977092;28;20070;-95
2022/04/20 00:39:31;;;;;;;5.90;4.03;;;;;;;11.63;60.97;100744.72;4976629;28;20465;-94
2022/04/20 00:41:57;;;;;;;7.75;4.07;;;;;;;11.63;61.44;100759.63;4976273;28;20027;-94
2022/04/20 00:44:24;;;;;;;14.75;4.75;;;;;;;11.57;61.24;100734.59;4976203;28;20031;-95
2022/04/20 00:46:51;;;;;;;11.18;4.70;;;;;;;11.76;60.88;100743.88;4976140;28;20033;-95
2022/04/20 00:49:17;;;;;;;5.28;3.92;;;;;;;11.84;60.55;100755.56;4976017;28;20034;-95
2022/04/20 00:51:54;;;;;;;8.07;4.95;;;;;;;11.80;60.58;100740.09;4975978;28;20027;-96
2022/04/20 00:54:20;;;;;;;5.45;4.07;;;;;;;11.97;60.47;100746.88;4976058;28;20027;-96
2022/04/20 00:56:45;;;;;;;10.20;4.75;;;;;;;12.12;59.81;100743.16;4976132;28;20019;-95
2022/04/20 00:59:13;;;;;;;9.20;3.65;;;;;;;11.97;60.34;100726.66;4975939;28;20035;-95
2022/04/20 01:01:38;;;;;;;7.70;3.97;;;;;;;12.09;59.89;100746.03;4974952;28;20086;-94
2022/04/20 01:04:04;;;;;;;6.15;4.10;;;;;;;12.15;59.73;100740.34;4976074;28;20528;-95
2022/04/20 01:06:29;;;;;;;7.43;4.05;;;;;;;12.39;58.72;100731.69;4975976;28;20034;-94
2022/04/20 01:08:54;;;;;;;5.63;3.97;;;;;;;12.62;58.96;100751.13;4975145;28;20038;-95
2022/04/20 01:11:20;;;;;;;7.45;3.90;;;;;;;12.69;58.45;100745.28;4975906;28;20023;-95
2022/04/20 01:13:45;;;;;;;7.32;3.83;;;;;;;12.77;57.99;100725.47;4975483;28;20115;-95
2022/04/20 01:16:11;;;;;;;4.78;3.42;;;;;;;12.87;58.18;100731.75;4976007;28;20113;-95
2022/04/20 01:18:43;;;;;;;6.57;4.05;;;;;;;12.55;58.55;100723.53;4977271;28;20046;-95
2022/04/20 01:21:10;;;;;;;5.85;3.25;;;;;;;12.86;57.63;100732.72;4979263;28;20027;-96
2022/04/20 01:23:36;;;;;;;4.93;3.13;;;;;;;12.94;57.54;100740.91;4977705;28;20030;-95
2022/04/20 01:26:06;;;;;;;6.93;3.45;;;;;;;12.96;57.05;100719.72;4975633;28;20142;-95
2022/04/20 01:28:31;;;;;;;6.15;3.55;;;;;;;13.02;56.73;100712.19;4975394;28;20027;-94
2022/04/20 01:30:57;;;;;;;7.30;3.35;;;;;;;12.97;56.81;100716.09;4975098;28;20019;-96
2022/04/20 01:33:22;;;;;;;4.30;3.33;;;;;;;13.26;56.32;100737.69;4975204;28;20019;-95
2022/04/20 01:35:48;;;;;;;7.25;3.70;;;;;;;13.30;56.32;100720.72;4975317;28;20030;-95
2022/04/20 01:38:13;;;;;;;6.38;2.85;;;;;;;13.34;56.22;100724.81;4975175;28;20370;-96
2022/04/20 01:40:39;;;;;;;6.32;3.38;;;;;;;13.31;56.26;100722.41;4975192;28;20027;-95
2022/04/20 01:43:04;;;;;;;7.80;4.25;;;;;;;13.31;56.13;100717.16;4975091;28;20006;-94
2022/04/20 01:45:30;;;;;;;7.78;3.60;;;;;;;12.93;56.50;100715.47;4974859;28;20082;-96
2022/04/20 01:47:56;;;;;;;7.78;3.45;;;;;;;13.22;56.76;100745.00;4975923;28;20033;-95
2022/04/20 01:50:21;;;;;;;4.85;3.45;;;;;;;13.03;56.57;100727.06;4974440;28;20109;-95
2022/04/20 01:52:50;;;;;;;9.93;4.75;;;;;;;13.04;56.33;100718.19;4974884;28;20027;-94
2022/04/20 01:55:18;;;;;;;5.85;3.35;;;;;;;13.05;56.57;100730.44;4975053;28;20049;-95
2022/04/20 01:57:44;;;;;;;5.82;3.50;;;;;;;13.21;56.57;100734.56;4974694;28;20019;-96
2022/04/20 02:00:10;;;;;;;6.93;3.42;;;;;;;13.23;56.83;100732.63;4974890;28;20049;-94
2022/04/20 02:02:39;;;;;;;8.23;4.22;;;;;;;13.15;56.99;100735.88;4974684;28;20022;-95
2022/04/20 02:05:08;;;;;;;6.50;3.75;;;;;;;13.12;57.78;100737.88;4975879;28;20066;-94
2022/04/20 02:07:34;;;;;;;9.88;5.95;;;;;;;12.67;59.32;100736.66;4977843;28;20035;-96
2022/04/20 02:10:00;;;;;;;11.80;5.80;;;;;;;12.63;59.06;100737.00;4977253;28;20027;-94
2022/04/20 02:12:25;;;;;;;8.38;4.97;;;;;;;12.78;58.78;100743.81;4975382;28;20093;-95
2022/04/20 02:14:50;;;;;;;7.50;4.55;;;;;;;12.83;58.33;100730.28;4974670;28;20030;-96
2022/04/20 02:17:16;;;;;;;7.68;4.78;;;;;;;12.69;58.51;100718.94;4974979;28;20027;-96
2022/04/20 02:19:42;;;;;;;7.05;4.38;;;;;;;12.70;58.64;100714.53;4974594;28;20030;-95
2022/04/20 02:22:07;;;;;;;8.63;4.53;;;;;;;12.61;58.68;100715.19;4974573;28;20426;-95
2022/04/20 02:24:33;;;;;;;8.65;5.10;;;;;;;12.51;59.04;100722.91;4974694;28;20007;-95
2022/04/20 02:26:58;;;;;;;7.35;4.57;;;;;;;12.66;58.80;100732.34;4974423;28;20029;-94
2022/04/20 02:29:24;;;;;;;8.15;4.65;;;;;;;12.58;59.51;100747.88;4974352;28;20031;-95
2022/04/20 02:31:49;;;;;;;8.65;5.20;;;;;;;12.45;59.01;100736.50;4973699;28;20054;-94
2022/04/20 02:34:15;;;;;;;8.43;5.70;;;;;;;12.15;60.85;100750.03;4974208;28;20069;-96
2022/04/20 02:36:41;;;;;;;8.18;5.47;;;;;;;12.23;60.20;100727.47;4974527;28;20493;-95
2022/04/20 02:39:07;;;;;;;9.60;4.93;;;;;;;12.24;60.37;100734.44;4974264;28;20026;-95
2022/04/20 02:41:35;;;;;;;12.40;7.22;;;;;;;11.95;60.88;100732.94;4974290;28;20094;-95
2022/04/20 02:44:00;;;;;;;9.07;5.47;;;;;;;12.04;60.33;100721.81;4974156;28;20023;-95
2022/04/20 02:46:26;;;;;;;8.70;4.90;;;;;;;12.32;60.28;100727.78;4973993;28;20046;-95
2022/04/20 02:48:51;;;;;;;7.82;5.30;;;;;;;12.12;60.41;100711.59;4973966;28;20544;-96
2022/04/20 02:51:17;;;;;;;6.25;4.95;;;;;;;11.95;60.79;100732.94;4973974;28;20031;-95
2022/04/20 02:53:42;;;;;;;7.55;5.10;;;;;;;11.78;61.34;100710.41;4973637;28;20402;-95
2022/04/20 02:56:08;;;;;;;8.65;5.13;;;;;;;11.68;61.76;100741.75;4962258;28;20058;-95
2022/04/20 02:58:33;;;;;;;8.07;5.75;;;;;;;11.48;62.21;100711.53;4954717;29;20027;-95
2022/04/20 03:00:59;;;;;;;9.48;5.50;;;;;;;11.52;62.09;100708.59;4954537;29;20038;-95
2022/04/20 03:03:24;;;;;;;9.98;5.80;;;;;;;11.32;63.11;100709.09;4954459;29;20011;-95
2022/04/20 03:05:51;;;;;;;7.47;5.28;;;;;;;11.37;62.96;100721.91;4954703;29;20078;-96
2022/04/20 03:08:17;;;;;;;9.05;5.28;;;;;;;11.31;63.30;100745.06;4954174;29;20129;-96
2022/04/20 03:10:42;;;;;;;10.18;5.53;;;;;;;11.15;63.30;100697.03;4953855;29;20470;-95
2022/04/20 03:13:08;;;;;;;10.27;5.45;;;;;;;11.16;63.78;100724.16;4954613;29;20035;-95
2022/04/20 03:15:33;;;;;;;19.67;8.85;;;;;;;11.00;63.90;100700.66;4954388;29;20357;-94
2022/04/20 03:17:59;;;;;;;6.57;5.40;;;;;;;11.07;63.72;100718.56;4954516;29;20066;-96
2022/04/20 03:20:25;;;;;;;11.05;6.10;;;;;;;11.03;64.14;100711.00;4954393;29;20035;-94
2022/04/20 03:22:50;;;;;;;8.85;6.03;;;;;;;10.71;64.51;100713.91;4954322;29;20019;-95
2022/04/20 03:25:16;;;;;;;7.80;5.43;;;;;;;10.96;64.04;100704.44;4957337;28;20038;-94
2022/04/20 03:27:41;;;;;;;14.40;5.93;;;;;;;10.87;64.62;100714.59;4958133;29;20026;-95
2022/04/20 03:30:07;;;;;;;12.30;6.07;;;;;;;10.86;63.95;100702.44;4958040;29;20478;-94
2022/04/20 03:32:34;;;;;;;8.43;6.07;;;;;;;10.95;64.24;100719.38;4958121;29;20041;-95
2022/04/20 03:35:00;;;;;;;11.55;5.97;;;;;;;11.10;63.54;100721.00;4958183;29;20063;-95
2022/04/20 03:37:26;;;;;;;10.75;5.38;;;;;;;11.01;63.32;100694.47;4958189;28;20023;-94
2022/04/20 03:39:52;;;;;;;8.95;5.32;;;;;;;11.20;63.16;100729.13;4957960;29;20038;-95
2022/04/20 03:42:17;;;;;;;9.27;4.88;;;;;;;11.23;63.11;100726.28;4957866;28;20027;-95
2022/04/20 03:44:42;;;;;;;9.20;6.03;;;;;;;10.99;63.76;100712.97;4957859;29;20036;-95
2022/04/20 03:47:08;;;;;;;10.27;6.05;;;;;;;10.92;63.46;100701.19;4957175;29;20086;-95
2022/04/20 03:49:34;;;;;;;10.05;5.82;;;;;;;10.86;64.06;100717.31;4957539;29;20031;-95
2022/04/20 03:52:01;;;;;;;7.20;5.22;;;;;;;10.97;63.55;100714.84;4957698;29;20378;-95
2022/04/20 03:54:27;;;;;;;10.77;5.60;;;;;;;11.04;63.99;100731.09;4957854;29;20114;-95
2022/04/20 03:57:04;;;;;;;12.15;5.65;;;;;;;10.91;63.27;100702.13;4957665;29;20086;-94
2022/04/20 03:59:33;;;;;;;10.07;6.45;;;;;;;10.96;63.80;100728.94;4957626;29;20027;-95
2022/04/20 04:02:03;;;;;;;12.20;6.88;;;;;;;10.65;65.18;100702.00;4957522;29;20031;-96
2022/04/20 04:04:28;;;;;;;11.48;7.30;;;;;;;10.62;65.95;100712.69;4957451;29;20024;-94
2022/04/20 04:06:54;;;;;;;11.88;6.95;;;;;;;10.91;65.09;100731.00;4957549;29;20034;-95
2022/04/20 04:09:20;;;;;;;9.13;7.80;;;;;;;10.77;64.97;100725.81;4957360;29;20032;-94
2022/04/20 04:11:45;;;;;;;11.63;7.15;;;;;;;10.63;65.18;100701.25;4957295;29;20066;-95
2022/04/20 04:14:11;;;;;;;13.32;7.57;;;;;;;10.77;65.37;100713.50;4957234;29;20023;-95
2022/04/20 04:16:36;;;;;;;15.43;9.10;;;;;;;10.63;65.91;100710.94;4956938;29;20474;-95
2022/04/20 04:19:06;;;;;;;12.95;9.48;;;;;;;10.37;66.58;100692.41;4957177;29;20027;-95
2022/04/20 04:21:33;;;;;;;13.57;8.70;;;;;;;10.50;66.47;100695.09;4957268;29;20031;-94
2022/04/20 04:23:59;;;;;;;12.02;8.88;;;;;;;10.57;66.70;100700.81;4957339;29;20027;-94
2022/04/20 04:26:25;;;;;;;21.17;9.98;;;;;;;10.42;67.36;100711.31;4957152;29;20023;-95
2022/04/20 04:28:51;;;;;;;17.38;10.57;;;;;;;10.58;66.39;100708.56;4957100;29;20031;-95
2022/04/20 04:31:16;;;;;;;18.42;9.85;;;;;;;10.46;67.30;100694.44;4957262;28;20027;-95
2022/04/20 04:33:42;;;;;;;17.60;11.07;;;;;;;10.70;66.27;100722.72;4956928;28;20051;-94
2022/04/20 04:36:07;;;;;;;16.42;10.85;;;;;;;10.66;66.31;100716.84;4956903;28;20565;-95
2022/04/20 04:38:33;;;;;;;18.25;11.43;;;;;;;10.44;67.19;100716.47;4957156;28;20055;-95
2022/04/20 04:40:59;;;;;;;20.77;11.35;;;;;;;10.55;66.79;100718.44;4957277;28;20054;-94
2022/04/20 04:43:25;;;;;;;16.63;10.65;;;;;;;10.48;66.61;100702.22;4956833;28;20086;-96
2022/04/20 04:48:38;;;;;;;17.80;11.35;;;;;;;10.47;66.29;100726.81;4958028;29;20143;-96
2022/04/20 04:51:05;;;;;;;16.40;11.45;;;;;;;10.68;65.88;100725.47;4956812;28;20031;-95
2022/04/20 04:53:30;;;;;;;16.75;11.20;;;;;;;10.57;66.65;100727.06;4956699;28;20038;-95
2022/04/20 04:55:56;;;;;;;18.52;11.40;;;;;;;10.53;66.12;100726.41;4956689;28;20027;-95
2022/04/20 04:58:22;;;;;;;18.13;11.63;;;;;;;10.59;66.09;100726.03;4956281;28;20466;-95
2022/04/20 05:00:48;;;;;;;17.63;11.50;;;;;;;10.66;66.13;100736.97;4956408;28;20027;-94
2022/04/20 05:03:14;;;;;;;18.80;12.10;;;;;;;10.59;65.36;100715.53;4956363;28;20441;-94
2022/04/20 05:05:41;;;;;;;21.33;11.57;;;;;;;10.56;65.62;100726.22;4956837;28;20027;-94
2022/04/20 05:08:07;;;;;;;20.67;10.95;;;;;;;10.64;65.36;100723.09;4958680;28;20593;-93
2022/04/20 05:10:33;;;;;;;17.00;10.98;;;;;;;10.64;65.49;100739.72;4959452;28;20019;-95
2022/04/20 05:13:00;;;;;;;19.63;11.80;;;;;;;10.66;65.64;100743.09;4958473;28;20019;-94
2022/04/20 05:15:26;;;;;;;19.15;11.23;;;;;;;10.50;65.97;100726.59;4956997;28;20273;-94
2022/04/20 05:17:51;;;;;;;14.95;11.98;;;;;;;10.49;65.95;100730.19;4956339;28;20640;-95
2022/04/20 05:20:19;;;;;;;18.83;10.75;;;;;;;10.62;65.45;100736.31;4957093;28;20034;-94
2022/04/20 05:22:44;;;;;;;20.75;11.80;;;;;;;10.54;66.52;100749.09;4956918;28;20027;-93
2022/04/20 05:25:10;;;;;;;18.65;11.70;;;;;;;10.43;66.52;100738.44;4955938;28;20027;-93
2022/04/20 05:27:35;;;;;;;17.15;13.43;;;;;;;10.30;67.30;100752.28;4956286;28;20087;-94
2022/04/20 05:30:01;;;;;;;17.80;12.35;;;;;;;10.46;66.12;100735.59;4956089;28;20028;-93
2022/04/20 05:32:26;;;;;;;20.80;11.80;;;;;;;10.32;66.90;100728.59;4956345;28;20371;-94
2022/04/20 05:34:52;;;;;;;16.42;11.40;;;;;;;10.41;66.60;100735.91;4955943;28;20470;-94
2022/04/20 05:42:46;;;;;;;21.30;11.48;;;;;;;10.64;65.82;100736.22;4957281;29;20114;-93
2022/04/20 05:45:11;;;;;;;17.48;11.75;;;;;;;10.38;66.27;100730.00;4955964;28;20134;-93
2022/04/20 05:47:38;;;;;;;20.33;11.18;;;;;;;10.73;65.81;100729.56;4955136;28;20466;-94
2022/04/20 05:50:05;;;;;;;17.95;11.63;;;;;;;10.84;65.75;100734.97;4955906;28;20023;-92
2022/04/20 05:52:30;;;;;;;17.00;11.45;;;;;;;10.82;66.01;100747.34;4955720;28;20020;-94
2022/04/20 05:54:57;;;;;;;16.88;11.25;;;;;;;10.85;65.27;100726.16;4956147;28;20023;-95
2022/04/20 05:57:23;;;;;;;23.33;12.55;;;;;;;10.76;65.60;100738.06;4956979;28;20023;-93
2022/04/20 05:59:48;;;;;;;18.90;12.18;;;;;;;11.11;65.00;100751.59;4956524;28;20478;-94
2022/04/20 06:02:14;;;;;;;18.42;11.93;;;;;;;11.19;64.50;100758.13;4956170;28;20029;-94
2022/04/20 06:04:39;;;;;;;20.33;12.98;;;;;;;11.06;64.83;100745.81;4955545;28;20114;-94
2022/04/20 06:07:06;;;;;;;17.35;12.57;;;;;;;11.34;64.26;100759.78;4955178;28;20119;-95
2022/04/20 06:09:31;;;;;;;20.98;12.93;;;;;;;11.35;63.93;100735.16;4955826;28;20525;-94
2022/04/20 06:11:57;;;;;;;14.88;10.88;;;;;;;11.50;63.61;100722.78;4955690;28;20019;-94
2022/04/20 06:14:23;;;;;;;21.75;12.48;;;;;;;11.81;62.77;100763.66;4955694;28;20027;-94
2022/04/20 06:16:48;;;;;;;17.52;11.75;;;;;;;11.53;63.08;100740.97;4956177;28;20031;-94
2022/04/20 06:19:14;;;;;;;14.77;11.20;;;;;;;11.58;63.22;100736.28;4955794;28;20426;-94
2022/04/20 06:21:39;;;;;;;16.50;11.63;;;;;;;11.88;63.06;100746.50;4955883;28;20390;-93
2022/04/20 06:24:05;;;;;;;20.60;13.18;;;;;;;11.91;62.17;100748.13;4955531;28;20027;-95
2022/04/20 06:26:30;;;;;;;18.20;11.63;;;;;;;12.32;61.26;100740.94;4955177;28;20051;-95
2022/04/20 06:28:56;;;;;;;15.85;11.23;;;;;;;12.16;60.91;100747.28;4955207;28;20027;-94
2022/04/20 06:31:21;;;;;;;19.75;12.13;;;;;;;12.01;61.67;100743.09;4955225;28;20589;-94
2022/04/20 06:33:47;;;;;;;21.48;11.43;;;;;;;12.32;60.73;100738.31;4955572;28;20028;-95
2022/04/20 06:36:12;;;;;;;21.73;11.18;;;;;;;12.55;60.16;100737.53;4955219;28;20024;-95
2022/04/20 06:38:37;;;;;;;20.85;11.82;;;;;;;12.61;60.08;100733.63;4954984;28;20512;-95
2022/04/20 06:41:03;;;;;;;16.90;11.10;;;;;;;12.66;59.35;100749.97;4955012;28;20054;-93
2022/04/20 06:43:29;;;;;;;19.45;11.23;;;;;;;12.90;58.91;100736.81;4954971;28;20067;-94
2022/04/20 06:45:54;;;;;;;20.17;11.93;;;;;;;13.01;58.56;100736.88;4954593;28;20031;-94
2022/04/20 06:48:20;;;;;;;17.13;11.57;;;;;;;12.67;58.98;100733.19;4956612;28;20038;-95
2022/04/20 06:50:46;;;;;;;15.65;12.23;;;;;;;12.85;58.66;100728.38;4954614;28;20030;-94
2022/04/20 06:58:39;;;;;;;16.33;11.98;;;;;;;12.58;59.75;100736.47;4955431;29;20457;-94
2022/04/20 07:01:07;;;;;;;25.17;13.07;;;;;;;12.95;59.08;100724.13;4954424;28;20023;-94
2022/04/20 07:03:33;;;;;;;16.50;11.70;;;;;;;13.04;58.41;100728.72;4954629;28;20066;-93
2022/04/20 07:05:59;;;;;;;17.38;10.98;;;;;;;12.84;58.79;100721.44;4954846;28;20027;-94
2022/04/20 07:08:26;;;;;;;22.30;12.48;;;;;;;12.95;58.23;100749.66;4955216;28;20033;-96
2022/04/20 07:10:52;;;;;;;22.35;13.00;;;;;;;12.78;59.19;100733.28;4955992;28;20130;-94
2022/04/20 07:13:17;;;;;;;19.35;12.02;;;;;;;12.30;59.67;100744.53;4954590;28;20470;-93
2022/04/20 07:15:44;;;;;;;18.95;12.75;;;;;;;13.00;59.14;100751.00;4955308;28;20086;-94
2022/04/20 07:18:09;;;;;;;18.30;12.57;;;;;;;12.23;60.48;100743.28;4955275;28;20038;-94
2022/04/20 07:20:35;;;;;;;18.85;13.15;;;;;;;12.47;59.93;100735.44;4955445;28;20110;-94
2022/04/20 07:23:00;;;;;;;21.52;13.73;;;;;;;12.41;60.07;100745.56;4956043;28;20124;-95
2022/04/20 07:25:30;;;;;;;21.75;14.75;;;;;;;11.67;62.15;100727.78;4955358;28;20118;-95
2022/04/20 07:27:56;;;;;;;19.33;14.43;;;;;;;12.76;59.63;100739.59;4955327;28;20056;-94
2022/04/20 07:30:21;;;;;;;21.17;15.88;;;;;;;12.36;59.80;100743.28;4955456;28;20028;-95
2022/04/20 07:32:48;;;;;;;26.42;15.25;;;;;;;12.95;58.68;100745.22;4954989;28;20474;-95
2022/04/20 07:35:14;;;;;;;24.60;15.07;;;;;;;13.00;58.89;100747.53;4954794;28;20019;-96
2022/04/20 07:37:40;;;;;;;25.25;15.65;;;;;;;13.43;57.26;100745.25;4955304;28;20082;-96
2022/04/20 07:40:06;;;;;;;25.13;15.23;;;;;;;13.15;58.22;100745.56;4955622;28;20027;-96
2022/04/20 07:42:32;;;;;;;21.02;15.93;;;;;;;13.14;57.50;100733.34;4954888;28;20027;-96
2022/04/20 07:44:58;;;;;;;19.77;15.55;;;;;;;13.40;57.07;100745.47;4955153;28;20024;-95
2022/04/20 07:47:25;;;;;;;25.25;15.70;;;;;;;13.59;56.76;100759.94;4955143;28;20027;-96
2022/04/20 07:52:40;;;;;;;20.25;16.10;;;;;;;14.14;55.29;100752.22;4955869;29;20552;-96
2022/04/20 07:55:11;;;;;;;25.35;16.42;;;;;;;14.01;55.73;100754.97;4960009;28;20062;-96
2022/04/20 07:57:37;;;;;;;21.98;16.20;;;;;;;15.28;52.88;100762.53;4954882;28;20070;-96
2022/04/20 08:00:07;;;;;;;23.80;16.23;;;;;;;14.33;54.48;100756.91;4954949;28;20031;-96
2022/04/20 08:02:33;;;;;;;20.55;15.25;;;;;;;14.67;54.32;100774.47;4954990;28;20023;-96
2022/04/20 08:04:58;;;;;;;26.20;16.00;;;;;;;14.63;54.88;100757.19;4954908;28;20027;-96
2022/04/20 08:07:26;;;;;;;21.92;15.55;;;;;;;15.13;53.04;100747.94;4954508;28;20117;-96
2022/04/20 08:09:52;;;;;;;21.10;14.80;;;;;;;15.41;52.91;100762.38;4955300;28;20031;-96
2022/04/20 08:12:18;;;;;;;21.58;14.90;;;;;;;15.64;52.02;100768.44;4958753;28;20434;-96
2022/04/20 08:14:47;;;;;;;21.25;15.30;;;;;;;16.28;50.87;100770.09;4960810;28;20032;-96
2022/04/20 08:17:12;;;;;;;17.92;14.68;;;;;;;17.08;48.59;100762.25;4959328;28;20027;-95
2022/04/20 08:19:38;;;;;;;19.48;14.35;;;;;;;17.10;49.45;100755.84;4962552;28;20098;-95
2022/04/20 08:22:04;;;;;;;18.95;13.50;;;;;;;18.41;45.98;100746.44;4958313;28;20505;-96
2022/04/20 08:24:30;;;;;;;19.65;13.88;;;;;;;19.80;42.18;100758.47;4958119;28;20430;-96
2022/04/20 08:26:56;;;;;;;18.35;13.48;;;;;;;20.45;41.88;100746.53;4958860;28;20078;-96
2022/04/20 08:29:22;;;;;;;16.35;12.15;;;;;;;22.64;37.96;100755.72;4961380;28;20359;-96
2022/04/20 08:31:47;;;;;;;22.83;13.73;;;;;;;23.49;36.83;100770.13;4959579;28;20114;-95
2022/04/20 08:34:13;;;;;;;19.38;13.25;;;;;;;22.11;37.84;100752.72;4961305;28;20035;-96
2022/04/20 08:36:38;;;;;;;17.45;12.23;;;;;;;23.59;36.87;100759.16;4959545;28;20473;-96
2022/04/20 08:39:04;;;;;;;14.63;12.27;;;;;;;23.59;36.65;100754.63;4959267;28;20406;-96
2022/04/20 08:41:30;;;;;;;18.52;12.23;;;;;;;27.18;30.52;100750.94;4959299;28;20024;-96
2022/04/20 08:43:56;;;;;;;15.48;11.25;;;;;;;29.57;27.97;100739.56;4958543;28;20023;-96
2022/04/20 08:46:27;;;;;;;16.83;12.25;;;;;;;27.77;29.46;100726.91;4959500;28;20031;-96
2022/04/20 08:48:53;;;;;;;18.45;11.63;;;;;;;30.42;26.18;100728.09;4959346;28;20074;-96
2022/04/20 08:51:19;;;;;;;16.70;11.45;;;;;;;31.58;24.80;100730.59;4958677;28;20035;-96
2022/04/20 08:53:47;;;;;;;15.25;11.23;;;;;;;32.36;24.50;100728.47;4961242;28;20028;-96
2022/04/20 08:59:05;;;;;;;16.63;12.07;;;;;;;30.42;25.62;100718.06;4978891;28;20434;-96
2022/04/20 09:01:30;;;;;;;17.23;11.02;;;;;;;33.23;23.00;100713.78;4974348;28;20054;-96
2022/04/20 09:03:59;;;;;;;17.15;11.27;;;;;;;32.94;23.34;100721.16;4969786;28;20019;-96
2022/04/20 09:06:41;;;;;;;16.85;11.13;;;;;;;33.64;22.36;100729.97;4966074;28;20118;-96
2022/04/20 09:09:09;;;;;;;15.38;11.30;;;;;;;36.88;20.41;100720.63;4960763;28;20474;-96
2022/04/20 09:11:37;;;;;;;13.75;10.48;;;;;;;35.46;20.68;100695.97;4962444;28;20031;-96
2022/04/20 09:14:15;;;;;;;17.83;10.65;;;;;;;36.70;19.73;100697.34;4962079;28;20015;-96
2022/04/20 09:17:08;;;;;;;19.70;10.48;;;;;;;35.97;19.82;100694.63;4965445;28;20029;-96
2022/04/20 09:20:21;;;;;;;13.52;9.88;;;;;;;35.86;20.06;100691.88;4970276;28;20042;-96
2022/04/20 09:23:20;;;;;;;16.15;9.25;;;;;;;36.96;19.17;100706.38;4964844;28;20035;-96
2022/04/20 09:25:53;;;;;;;13.82;10.32;;;;;;;37.48;18.60;100690.75;4952923;29;20003;-96
2022/04/20 09:28:47;;;;;;;12.15;8.52;;;;;;;38.20;18.41;100696.84;4964866;28;20048;-96
2022/04/20 09:32:07;;;;;;;13.90;9.15;;;;;;;39.18;17.54;100687.94;4963197;28;20162;-96
2022/04/20 09:35:03;;;;;;;14.93;10.30;;;;;;;36.78;19.02;100672.19;4963495;29;20119;-96
2022/04/20 09:37:33;;;;;;;19.30;10.50;;;;;;;33.59;22.22;100655.28;4964524;29;20034;-96
2022/04/20 09:40:04;;;;;;;14.18;8.82;;;;;;;35.85;20.01;100670.28;4959692;28;20023;-96
2022/04/20 09:42:45;;;;;;;;;;;;;;;38.15;19.16;100669.44;4959828;29;20038;-96
2022/04/20 09:45:13;;;;;;;11.52;9.18;;;;;;;37.63;18.63;100654.31;4945514;29;19910;-96
2022/04/20 09:50:34;;;;;;;13.68;8.52;;;;;;;36.91;19.36;100663.44;4961647;29;20049;-96
2022/04/20 09:53:14;;;;;;;16.15;9.73;;;;;;;36.26;19.70;100664.97;4968976;28;20023;-96
2022/04/20 09:58:45;;;;;;;18.73;9.80;;;;;;;33.05;23.10;100641.38;5676622;23;20394;-96
2022/04/20 10:01:30;;;;;;;10.57;8.85;;;;;;;35.07;21.35;100630.72;4959201;28;20036;-96
2022/04/20 10:03:59;;;;;;;13.52;8.48;;;;;;;34.88;22.01;100651.31;4939920;29;20063;-96
2022/04/20 10:06:30;;;;;;;13.98;8.00;;;;;;;36.67;20.35;100624.88;4946531;28;20010;-96
2022/04/20 10:09:04;;;;;;;15.18;9.15;;;;;;;37.39;20.02;100643.13;4940005;29;20024;-96
2022/04/20 10:11:41;;;;;;;13.02;8.15;;;;;;;38.55;17.54;100631.94;4940861;29;20123;-96
2022/04/20 10:17:08;;;;;;;;;;;;;;;;;;;;;
2022/04/20 10:19:37;;;;;;;10.82;7.78;;;;;;;39.12;17.51;100623.19;4947272;28;20103;-96
2022/04/20 10:22:05;;;;;;;10.38;7.93;;;;;;;41.24;16.30;100634.53;4942780;29;20035;-96
2022/04/20 10:25:19;;;;;;;11.80;7.22;;;;;;;41.62;15.30;100626.06;4945856;29;20023;-96
2022/04/20 10:29:00;;;;;;;9.20;7.07;;;;;;;42.33;15.20;100639.41;4942549;29;20028;-96
2022/04/20 10:31:37;;;;;;;11.55;7.63;;;;;;;44.11;14.46;100626.56;4937499;29;20050;-96
2022/04/20 10:38:04;;;;;;;9.18;6.55;;;;;;;45.15;14.10;100597.88;4941917;29;20356;-96
2022/04/20 10:40:59;;;;;;;9.13;6.90;;;;;;;44.14;14.12;100592.75;4940819;29;20126;-96
2022/04/20 10:43:53;;;;;;;14.02;7.53;;;;;;;44.56;13.05;100603.28;4941178;29;20032;-96
2022/04/20 10:46:34;;;;;;;14.07;7.30;;;;;;;45.04;13.67;100607.69;4925275;29;20040;-96
2022/04/20 10:49:29;;;;;;;13.77;7.10;;;;;;;44.62;13.38;100607.50;4942180;29;20467;-96
2022/04/20 10:56:01;;;;;;;11.30;7.22;;;;;;;43.28;14.74;100614.34;4940751;29;20044;-95
2022/04/20 10:58:28;;;;;;;11.40;7.07;;;;;;;44.12;14.36;100608.81;4938292;29;20103;-96
2022/04/20 11:01:11;;;;;;;10.93;7.03;;;;;;;44.76;13.58;100599.78;4937747;29;20023;-96
2022/04/20 11:04:30;;;;;;;10.60;7.63;;;;;;;43.26;13.84;100610.25;4938705;29;20083;-96
2022/04/20 11:07:06;;;;;;;9.63;7.88;;;;;;;39.79;16.19;100593.03;4938383;29;20487;-96
2022/04/20 11:09:49;;;;;;;9.65;7.53;;;;;;;39.80;15.53;100589.19;4938114;29;20501;-96
2022/04/20 11:18:40;;;;;;;13.05;8.02;;;;;;;39.31;16.46;100585.63;4941994;29;20109;-96
2022/04/20 11:21:16;;;;;;;10.25;7.88;;;;;;;41.95;15.44;100579.03;4940396;29;20036;-96
2022/04/20 11:24:11;;;;;;;10.02;6.72;;;;;;;42.75;15.30;100585.63;4942111;29;20024;-96
2022/04/20 11:27:06;;;;;;;15.40;8.20;;;;;;;41.45;15.32;100566.03;4942969;29;20040;-96
2022/04/20 11:30:07;;;;;;;14.85;8.52;;;;;;;41.30;15.62;100556.16;4939951;29;20031;-96
2022/04/20 11:32:35;;;;;;;14.50;7.32;;;;;;;38.87;18.41;100561.94;4939235;29;20040;-96
2022/04/20 11:35:15;;;;;;;8.70;6.57;;;;;;;42.40;15.46;100563.31;4939196;29;20027;-96
2022/04/20 11:38:01;;;;;;;17.38;7.38;;;;;;;39.54;16.38;100553.00;4941399;29;20039;-96
2022/04/20 11:40:39;;;;;;;;;;;;;;;;;;;;;
2022/04/20 11:43:20;;;;;;;;;;;;;;;;;;;;;
2022/04/20 11:45:55;;;;;;;14.48;7.30;;;;;;;42.37;15.09;100552.09;4946347;29;20096;-96
2022/04/20 11:48:21;;;;;;;10.60;7.15;;;;;;;43.36;13.55;100541.69;4951780;29;20028;-95
2022/04/20 11:50:59;;;;;;;13.77;7.00;;;;;;;43.38;14.33;100528.38;4957178;29;20039;-95
2022/04/20 11:53:40;;;;;;;13.65;6.78;;;;;;;44.28;14.22;100529.72;4955156;29;20024;-96
2022/04/20 11:56:13;;;;;;;11.70;7.75;;;;;;;39.71;16.10;100533.22;4945448;29;20032;-96
2022/04/20 11:58:39;;;;;;;9.73;6.10;;;;;;;42.95;14.51;100529.06;4946974;29;20048;-96
2022/04/20 12:01:07;;;;;;;13.05;6.05;;;;;;;43.71;13.61;100532.69;4943256;29;20047;-96
2022/04/20 12:03:37;;;;;;;9.90;6.47;;;;;;;41.59;14.39;100521.91;4943729;29;20107;-96
2022/04/20 12:06:17;;;;;;;8.27;5.35;;;;;;;44.05;13.25;100522.72;4943875;29;20020;-96
2022/04/20 12:08:44;;;;;;;8.43;5.82;;;;;;;42.64;13.67;100529.06;4944402;29;20031;-96
2022/04/20 12:11:11;;;;;;;9.02;6.38;;;;;;;41.03;14.79;100538.47;4943150;29;20087;-96
2022/04/20 12:13:40;;;;;;;6.72;5.10;;;;;;;41.94;13.91;100513.97;4944391;29;20028;-96